sensor_id;sensor_type;location;lat;lon;timestamp;P1;durP1;ratioP1;P2;durP2;ratioP2
10872;SDS011;34586;53.616;10.032;2023-12-07T00:00:31;148.53;;;54.70;;
10872;SDS011;34586;53.616;10.032;2023-12-07T00:02:57;137.20;;;49.80;;
10872;SDS011;34586;53.616;10.032;2023-12-07T00:05:24;141.70;;;52.27;;
10872;SDS011;34586;53.616;10.032;2023-12-07T00:07:50;137.00;;;51.93;;
10872;SDS011;34586;53.616;10.032;2023-12-07T00:10:15;137.53;;;52.37;;
10872;SDS011;34586;53.616;10.032;2023-12-07T00:12:41;141.40;;;53.07;;
10872;SDS011;34586;53.616;10.032;2023-12-07T00:15:06;131.10;;;51.20;;
10872;SDS011;34586;53.616;10.032;2023-12-07T00:17:32;139.60;;;52.13;;
10872;SDS011;34586;53.616;10.032;2023-12-07T00:19:58;134.73;;;52.27;;
10872;SDS011;34586;53.616;10.032;2023-12-07T00:22:24;139.17;;;52.97;;
10872;SDS011;34586;53.616;10.032;2023-12-07T00:24:51;140.13;;;53.47;;
10872;SDS011;34586;53.616;10.032;2023-12-07T00:27:17;144.43;;;55.33;;
10872;SDS011;34586;53.616;10.032;2023-12-07T00:29:43;145.27;;;54.97;;
10872;SDS011;34586;53.616;10.032;2023-12-07T00:32:08;142.30;;;54.53;;
10872;SDS011;34586;53.616;10.032;2023-12-07T00:34:34;156.03;;;56.63;;
10872;SDS011;34586;53.616;10.032;2023-12-07T00:37:00;138.43;;;54.77;;
10872;SDS011;34586;53.616;10.032;2023-12-07T00:39:25;135.80;;;53.53;;
10872;SDS011;34586;53.616;10.032;2023-12-07T00:41:51;142.00;;;53.53;;
10872;SDS011;34586;53.616;10.032;2023-12-07T00:44:17;142.87;;;53.87;;
10872;SDS011;34586;53.616;10.032;2023-12-07T00:46:43;148.27;;;56.43;;
10872;SDS011;34586;53.616;10.032;2023-12-07T00:49:09;147.17;;;56.83;;
10872;SDS011;34586;53.616;10.032;2023-12-07T00:51:34;139.53;;;54.83;;
10872;SDS011;34586;53.616;10.032;2023-12-07T00:54:00;132.23;;;53.87;;
10872;SDS011;34586;53.616;10.032;2023-12-07T00:56:26;136.90;;;52.77;;
10872;SDS011;34586;53.616;10.032;2023-12-07T00:58:51;135.87;;;53.47;;
10872;SDS011;34586;53.616;10.032;2023-12-07T01:01:17;126.43;;;52.97;;
10872;SDS011;34586;53.616;10.032;2023-12-07T01:03:43;136.10;;;52.27;;
10872;SDS011;34586;53.616;10.032;2023-12-07T01:06:09;128.47;;;52.47;;
10872;SDS011;34586;53.616;10.032;2023-12-07T01:08:36;127.00;;;51.30;;
10872;SDS011;34586;53.616;10.032;2023-12-07T01:11:02;127.73;;;53.07;;
10872;SDS011;34586;53.616;10.032;2023-12-07T01:13:31;121.53;;;50.37;;
10872;SDS011;34586;53.616;10.032;2023-12-07T01:15:56;115.80;;;51.47;;
10872;SDS011;34586;53.616;10.032;2023-12-07T01:18:22;118.07;;;51.07;;
10872;SDS011;34586;53.616;10.032;2023-12-07T01:20:47;115.57;;;50.37;;
10872;SDS011;34586;53.616;10.032;2023-12-07T01:23:14;112.60;;;49.87;;
10872;SDS011;34586;53.616;10.032;2023-12-07T01:25:39;120.47;;;52.30;;
10872;SDS011;34586;53.616;10.032;2023-12-07T01:28:05;118.90;;;50.63;;
10872;SDS011;34586;53.616;10.032;2023-12-07T01:30:31;123.90;;;52.53;;
10872;SDS011;34586;53.616;10.032;2023-12-07T01:32:56;113.23;;;50.53;;
10872;SDS011;34586;53.616;10.032;2023-12-07T01:35:22;111.83;;;50.03;;
10872;SDS011;34586;53.616;10.032;2023-12-07T01:37:47;108.37;;;49.97;;
10872;SDS011;34586;53.616;10.032;2023-12-07T01:40:13;121.30;;;51.70;;
10872;SDS011;34586;53.616;10.032;2023-12-07T01:42:40;110.37;;;49.40;;
10872;SDS011;34586;53.616;10.032;2023-12-07T01:45:13;119.67;;;51.47;;
10872;SDS011;34586;53.616;10.032;2023-12-07T01:47:39;110.73;;;50.47;;
10872;SDS011;34586;53.616;10.032;2023-12-07T01:50:05;105.87;;;47.40;;
10872;SDS011;34586;53.616;10.032;2023-12-07T01:52:32;106.23;;;49.17;;
10872;SDS011;34586;53.616;10.032;2023-12-07T01:55:01;110.63;;;48.60;;
10872;SDS011;34586;53.616;10.032;2023-12-07T01:57:27;106.47;;;50.13;;
10872;SDS011;34586;53.616;10.032;2023-12-07T01:59:53;108.77;;;49.77;;
10872;SDS011;34586;53.616;10.032;2023-12-07T02:02:19;108.33;;;49.80;;
10872;SDS011;34586;53.616;10.032;2023-12-07T02:04:45;103.97;;;48.83;;
10872;SDS011;34586;53.616;10.032;2023-12-07T02:07:11;111.87;;;48.63;;
10872;SDS011;34586;53.616;10.032;2023-12-07T02:09:37;102.27;;;47.57;;
10872;SDS011;34586;53.616;10.032;2023-12-07T02:12:03;106.90;;;48.80;;
10872;SDS011;34586;53.616;10.032;2023-12-07T02:14:28;103.00;;;49.10;;
10872;SDS011;34586;53.616;10.032;2023-12-07T02:16:56;101.80;;;46.83;;
10872;SDS011;34586;53.616;10.032;2023-12-07T02:19:47;106.37;;;48.47;;
10872;SDS011;34586;53.616;10.032;2023-12-07T02:22:31;109.30;;;47.43;;
10872;SDS011;34586;53.616;10.032;2023-12-07T02:25:09;102.90;;;46.73;;
10872;SDS011;34586;53.616;10.032;2023-12-07T02:27:36;111.63;;;49.03;;
10872;SDS011;34586;53.616;10.032;2023-12-07T02:30:03;108.83;;;47.97;;
10872;SDS011;34586;53.616;10.032;2023-12-07T02:32:29;120.13;;;49.97;;
10872;SDS011;34586;53.616;10.032;2023-12-07T02:34:55;115.10;;;50.03;;
10872;SDS011;34586;53.616;10.032;2023-12-07T02:37:21;111.93;;;48.80;;
10872;SDS011;34586;53.616;10.032;2023-12-07T02:39:49;119.07;;;50.70;;
10872;SDS011;34586;53.616;10.032;2023-12-07T02:42:16;123.57;;;50.77;;
10872;SDS011;34586;53.616;10.032;2023-12-07T02:44:42;112.50;;;48.87;;
10872;SDS011;34586;53.616;10.032;2023-12-07T02:47:08;109.87;;;46.13;;
10872;SDS011;34586;53.616;10.032;2023-12-07T02:49:34;114.10;;;47.13;;
10872;SDS011;34586;53.616;10.032;2023-12-07T02:51:59;110.83;;;46.90;;
10872;SDS011;34586;53.616;10.032;2023-12-07T02:54:25;108.87;;;46.70;;
10872;SDS011;34586;53.616;10.032;2023-12-07T02:56:51;112.57;;;46.70;;
10872;SDS011;34586;53.616;10.032;2023-12-07T02:59:16;111.70;;;45.97;;
10872;SDS011;34586;53.616;10.032;2023-12-07T03:01:42;104.97;;;47.70;;
10872;SDS011;34586;53.616;10.032;2023-12-07T03:04:07;103.20;;;44.97;;
10872;SDS011;34586;53.616;10.032;2023-12-07T03:06:33;95.83;;;44.97;;
10872;SDS011;34586;53.616;10.032;2023-12-07T03:08:58;105.90;;;45.53;;
10872;SDS011;34586;53.616;10.032;2023-12-07T03:11:24;97.87;;;44.27;;
10872;SDS011;34586;53.616;10.032;2023-12-07T03:13:49;97.50;;;44.87;;
10872;SDS011;34586;53.616;10.032;2023-12-07T03:16:15;85.93;;;42.03;;
10872;SDS011;34586;53.616;10.032;2023-12-07T03:18:41;95.87;;;43.97;;
10872;SDS011;34586;53.616;10.032;2023-12-07T03:21:06;93.27;;;44.50;;
10872;SDS011;34586;53.616;10.032;2023-12-07T03:23:32;95.87;;;44.80;;
10872;SDS011;34586;53.616;10.032;2023-12-07T03:25:57;93.87;;;44.43;;
10872;SDS011;34586;53.616;10.032;2023-12-07T03:28:23;95.60;;;43.77;;
10872;SDS011;34586;53.616;10.032;2023-12-07T03:30:48;90.93;;;44.30;;
10872;SDS011;34586;53.616;10.032;2023-12-07T03:33:14;89.87;;;44.83;;
10872;SDS011;34586;53.616;10.032;2023-12-07T03:35:40;85.93;;;43.23;;
10872;SDS011;34586;53.616;10.032;2023-12-07T03:38:06;88.90;;;43.27;;
10872;SDS011;34586;53.616;10.032;2023-12-07T03:40:31;87.80;;;43.33;;
10872;SDS011;34586;53.616;10.032;2023-12-07T03:42:57;89.17;;;44.10;;
10872;SDS011;34586;53.616;10.032;2023-12-07T03:45:23;88.47;;;42.60;;
10872;SDS011;34586;53.616;10.032;2023-12-07T03:47:48;86.27;;;42.40;;
10872;SDS011;34586;53.616;10.032;2023-12-07T03:50:14;83.43;;;43.30;;
10872;SDS011;34586;53.616;10.032;2023-12-07T03:52:40;80.93;;;42.20;;
10872;SDS011;34586;53.616;10.032;2023-12-07T03:55:06;88.23;;;42.93;;
10872;SDS011;34586;53.616;10.032;2023-12-07T03:57:32;88.83;;;43.83;;
10872;SDS011;34586;53.616;10.032;2023-12-07T03:59:57;92.50;;;44.37;;
10872;SDS011;34586;53.616;10.032;2023-12-07T04:02:23;90.03;;;43.93;;
10872;SDS011;34586;53.616;10.032;2023-12-07T04:04:49;82.63;;;41.73;;
10872;SDS011;34586;53.616;10.032;2023-12-07T04:07:14;83.07;;;43.70;;
10872;SDS011;34586;53.616;10.032;2023-12-07T04:09:40;83.13;;;41.63;;
10872;SDS011;34586;53.616;10.032;2023-12-07T04:12:06;88.10;;;45.00;;
10872;SDS011;34586;53.616;10.032;2023-12-07T04:14:31;91.93;;;45.57;;
10872;SDS011;34586;53.616;10.032;2023-12-07T04:16:57;91.10;;;45.10;;
10872;SDS011;34586;53.616;10.032;2023-12-07T04:19:23;83.43;;;43.30;;
10872;SDS011;34586;53.616;10.032;2023-12-07T04:21:48;91.63;;;44.63;;
10872;SDS011;34586;53.616;10.032;2023-12-07T04:24:14;85.97;;;43.47;;
10872;SDS011;34586;53.616;10.032;2023-12-07T04:26:39;85.73;;;42.37;;
10872;SDS011;34586;53.616;10.032;2023-12-07T04:29:05;78.30;;;42.73;;
10872;SDS011;34586;53.616;10.032;2023-12-07T04:31:30;81.00;;;43.03;;
10872;SDS011;34586;53.616;10.032;2023-12-07T04:33:56;75.77;;;41.33;;
10872;SDS011;34586;53.616;10.032;2023-12-07T04:36:21;76.77;;;42.73;;
10872;SDS011;34586;53.616;10.032;2023-12-07T04:38:47;77.63;;;40.60;;
10872;SDS011;34586;53.616;10.032;2023-12-07T04:41:13;75.03;;;42.57;;
10872;SDS011;34586;53.616;10.032;2023-12-07T04:43:38;74.47;;;39.93;;
10872;SDS011;34586;53.616;10.032;2023-12-07T04:46:04;75.93;;;41.03;;
10872;SDS011;34586;53.616;10.032;2023-12-07T04:48:30;75.60;;;41.57;;
10872;SDS011;34586;53.616;10.032;2023-12-07T04:50:56;73.60;;;40.50;;
10872;SDS011;34586;53.616;10.032;2023-12-07T04:53:21;75.53;;;41.77;;
10872;SDS011;34586;53.616;10.032;2023-12-07T04:55:47;72.70;;;41.67;;
10872;SDS011;34586;53.616;10.032;2023-12-07T04:58:15;73.77;;;42.43;;
10872;SDS011;34586;53.616;10.032;2023-12-07T05:00:40;71.07;;;40.50;;
10872;SDS011;34586;53.616;10.032;2023-12-07T05:03:06;70.13;;;41.33;;
10872;SDS011;34586;53.616;10.032;2023-12-07T05:05:32;72.90;;;41.93;;
10872;SDS011;34586;53.616;10.032;2023-12-07T05:07:57;73.67;;;43.33;;
10872;SDS011;34586;53.616;10.032;2023-12-07T05:10:23;72.70;;;41.23;;
10872;SDS011;34586;53.616;10.032;2023-12-07T05:12:50;71.47;;;40.57;;
10872;SDS011;34586;53.616;10.032;2023-12-07T05:15:16;71.60;;;40.87;;
10872;SDS011;34586;53.616;10.032;2023-12-07T05:17:41;68.87;;;39.73;;
10872;SDS011;34586;53.616;10.032;2023-12-07T05:20:07;70.13;;;39.90;;
10872;SDS011;34586;53.616;10.032;2023-12-07T05:22:33;64.87;;;40.63;;
10872;SDS011;34586;53.616;10.032;2023-12-07T05:24:59;67.20;;;39.53;;
10872;SDS011;34586;53.616;10.032;2023-12-07T05:27:24;69.03;;;39.30;;
10872;SDS011;34586;53.616;10.032;2023-12-07T05:29:50;64.27;;;38.87;;
10872;SDS011;34586;53.616;10.032;2023-12-07T05:32:15;68.37;;;40.83;;
10872;SDS011;34586;53.616;10.032;2023-12-07T05:34:41;66.93;;;40.47;;
10872;SDS011;34586;53.616;10.032;2023-12-07T05:37:07;67.43;;;40.37;;
10872;SDS011;34586;53.616;10.032;2023-12-07T05:39:33;62.83;;;38.27;;
10872;SDS011;34586;53.616;10.032;2023-12-07T05:41:58;70.00;;;39.73;;
10872;SDS011;34586;53.616;10.032;2023-12-07T05:44:24;68.00;;;39.87;;
10872;SDS011;34586;53.616;10.032;2023-12-07T05:46:49;68.87;;;39.83;;
10872;SDS011;34586;53.616;10.032;2023-12-07T05:49:15;68.23;;;40.73;;
10872;SDS011;34586;53.616;10.032;2023-12-07T05:51:41;67.40;;;40.60;;
10872;SDS011;34586;53.616;10.032;2023-12-07T05:54:07;65.83;;;38.63;;
10872;SDS011;34586;53.616;10.032;2023-12-07T05:56:32;67.30;;;39.57;;
10872;SDS011;34586;53.616;10.032;2023-12-07T05:58:58;63.90;;;38.50;;
10872;SDS011;34586;53.616;10.032;2023-12-07T06:01:23;64.20;;;40.80;;
10872;SDS011;34586;53.616;10.032;2023-12-07T06:03:49;64.00;;;38.77;;
10872;SDS011;34586;53.616;10.032;2023-12-07T06:06:15;63.07;;;38.37;;
10872;SDS011;34586;53.616;10.032;2023-12-07T06:08:40;63.00;;;39.03;;
10872;SDS011;34586;53.616;10.032;2023-12-07T06:11:06;61.60;;;37.87;;
10872;SDS011;34586;53.616;10.032;2023-12-07T06:13:32;66.20;;;39.27;;
10872;SDS011;34586;53.616;10.032;2023-12-07T06:15:58;61.93;;;36.93;;
10872;SDS011;34586;53.616;10.032;2023-12-07T06:18:24;63.00;;;37.70;;
10872;SDS011;34586;53.616;10.032;2023-12-07T06:20:50;65.47;;;37.67;;
10872;SDS011;34586;53.616;10.032;2023-12-07T06:23:15;63.63;;;38.73;;
10872;SDS011;34586;53.616;10.032;2023-12-07T06:25:41;61.70;;;37.10;;
10872;SDS011;34586;53.616;10.032;2023-12-07T06:28:07;63.37;;;38.53;;
10872;SDS011;34586;53.616;10.032;2023-12-07T06:30:32;60.07;;;35.90;;
10872;SDS011;34586;53.616;10.032;2023-12-07T06:32:58;60.67;;;36.87;;
10872;SDS011;34586;53.616;10.032;2023-12-07T06:35:24;62.27;;;37.23;;
10872;SDS011;34586;53.616;10.032;2023-12-07T06:37:49;63.27;;;38.50;;
10872;SDS011;34586;53.616;10.032;2023-12-07T06:40:15;63.80;;;37.57;;
10872;SDS011;34586;53.616;10.032;2023-12-07T06:42:40;62.20;;;37.03;;
10872;SDS011;34586;53.616;10.032;2023-12-07T06:45:06;64.03;;;38.00;;
10872;SDS011;34586;53.616;10.032;2023-12-07T06:47:36;59.07;;;36.97;;
10872;SDS011;34586;53.616;10.032;2023-12-07T06:50:03;63.47;;;38.30;;
10872;SDS011;34586;53.616;10.032;2023-12-07T06:52:29;61.57;;;37.70;;
10872;SDS011;34586;53.616;10.032;2023-12-07T06:54:55;61.17;;;37.70;;
10872;SDS011;34586;53.616;10.032;2023-12-07T06:57:21;60.50;;;36.93;;
10872;SDS011;34586;53.616;10.032;2023-12-07T06:59:46;58.47;;;35.80;;
10872;SDS011;34586;53.616;10.032;2023-12-07T07:02:12;62.60;;;37.00;;
10872;SDS011;34586;53.616;10.032;2023-12-07T07:04:38;60.00;;;35.07;;
10872;SDS011;34586;53.616;10.032;2023-12-07T07:07:04;61.63;;;36.47;;
10872;SDS011;34586;53.616;10.032;2023-12-07T07:09:29;64.43;;;38.63;;
10872;SDS011;34586;53.616;10.032;2023-12-07T07:11:55;59.27;;;36.93;;
10872;SDS011;34586;53.616;10.032;2023-12-07T07:14:20;60.97;;;37.50;;
10872;SDS011;34586;53.616;10.032;2023-12-07T07:16:46;61.30;;;36.57;;
10872;SDS011;34586;53.616;10.032;2023-12-07T07:19:12;62.17;;;36.80;;
10872;SDS011;34586;53.616;10.032;2023-12-07T07:21:38;59.03;;;36.23;;
10872;SDS011;34586;53.616;10.032;2023-12-07T07:24:04;62.63;;;37.37;;
10872;SDS011;34586;53.616;10.032;2023-12-07T07:26:29;57.37;;;34.67;;
10872;SDS011;34586;53.616;10.032;2023-12-07T07:28:55;60.13;;;37.20;;
10872;SDS011;34586;53.616;10.032;2023-12-07T07:31:21;58.37;;;35.70;;
10872;SDS011;34586;53.616;10.032;2023-12-07T07:33:46;60.00;;;36.67;;
10872;SDS011;34586;53.616;10.032;2023-12-07T07:36:12;59.13;;;35.77;;
10872;SDS011;34586;53.616;10.032;2023-12-07T07:38:40;57.37;;;35.47;;
10872;SDS011;34586;53.616;10.032;2023-12-07T07:41:05;63.03;;;37.80;;
10872;SDS011;34586;53.616;10.032;2023-12-07T07:43:31;67.70;;;40.03;;
10872;SDS011;34586;53.616;10.032;2023-12-07T07:45:59;63.57;;;37.80;;
10872;SDS011;34586;53.616;10.032;2023-12-07T07:48:25;63.80;;;38.93;;
10872;SDS011;34586;53.616;10.032;2023-12-07T07:50:51;63.63;;;38.50;;
10872;SDS011;34586;53.616;10.032;2023-12-07T07:53:16;66.33;;;39.63;;
10872;SDS011;34586;53.616;10.032;2023-12-07T07:55:42;57.80;;;36.93;;
10872;SDS011;34586;53.616;10.032;2023-12-07T07:58:08;65.00;;;39.20;;
10872;SDS011;34586;53.616;10.032;2023-12-07T08:00:33;62.00;;;38.13;;
10872;SDS011;34586;53.616;10.032;2023-12-07T08:02:59;56.30;;;35.57;;
10872;SDS011;34586;53.616;10.032;2023-12-07T08:05:25;59.50;;;37.27;;
10872;SDS011;34586;53.616;10.032;2023-12-07T08:07:51;62.67;;;38.13;;
10872;SDS011;34586;53.616;10.032;2023-12-07T08:10:16;57.83;;;37.13;;
10872;SDS011;34586;53.616;10.032;2023-12-07T08:12:42;58.13;;;36.83;;
10872;SDS011;34586;53.616;10.032;2023-12-07T08:15:09;61.40;;;37.63;;
10872;SDS011;34586;53.616;10.032;2023-12-07T08:17:38;53.73;;;34.70;;
10872;SDS011;34586;53.616;10.032;2023-12-07T08:20:06;56.20;;;36.30;;
10872;SDS011;34586;53.616;10.032;2023-12-07T08:22:32;60.47;;;36.57;;
10872;SDS011;34586;53.616;10.032;2023-12-07T08:24:58;55.47;;;36.27;;
10872;SDS011;34586;53.616;10.032;2023-12-07T08:27:25;60.63;;;37.67;;
10872;SDS011;34586;53.616;10.032;2023-12-07T08:29:50;62.17;;;38.23;;
10872;SDS011;34586;53.616;10.032;2023-12-07T08:32:16;54.70;;;37.43;;
10872;SDS011;34586;53.616;10.032;2023-12-07T08:34:44;59.07;;;38.37;;
10872;SDS011;34586;53.616;10.032;2023-12-07T08:37:10;60.77;;;39.70;;
10872;SDS011;34586;53.616;10.032;2023-12-07T08:39:35;62.87;;;39.53;;
10872;SDS011;34586;53.616;10.032;2023-12-07T08:42:01;58.70;;;39.20;;
10872;SDS011;34586;53.616;10.032;2023-12-07T08:44:26;65.57;;;41.80;;
10872;SDS011;34586;53.616;10.032;2023-12-07T08:46:52;70.27;;;45.27;;
10872;SDS011;34586;53.616;10.032;2023-12-07T08:49:18;64.43;;;42.07;;
10872;SDS011;34586;53.616;10.032;2023-12-07T08:51:43;66.77;;;43.57;;
10872;SDS011;34586;53.616;10.032;2023-12-07T08:54:10;69.23;;;43.80;;
10872;SDS011;34586;53.616;10.032;2023-12-07T08:56:35;65.80;;;40.40;;
10872;SDS011;34586;53.616;10.032;2023-12-07T08:59:01;60.13;;;39.00;;
10872;SDS011;34586;53.616;10.032;2023-12-07T09:01:27;59.63;;;38.53;;
10872;SDS011;34586;53.616;10.032;2023-12-07T09:03:53;60.07;;;36.73;;
10872;SDS011;34586;53.616;10.032;2023-12-07T09:06:18;56.13;;;37.53;;
10872;SDS011;34586;53.616;10.032;2023-12-07T09:08:44;61.97;;;38.97;;
10872;SDS011;34586;53.616;10.032;2023-12-07T09:11:10;53.97;;;36.40;;
10872;SDS011;34586;53.616;10.032;2023-12-07T09:13:36;55.53;;;36.13;;
10872;SDS011;34586;53.616;10.032;2023-12-07T09:16:02;58.27;;;37.63;;
10872;SDS011;34586;53.616;10.032;2023-12-07T09:18:28;53.83;;;36.77;;
10872;SDS011;34586;53.616;10.032;2023-12-07T09:20:54;56.10;;;37.87;;
10872;SDS011;34586;53.616;10.032;2023-12-07T09:23:19;61.50;;;37.83;;
10872;SDS011;34586;53.616;10.032;2023-12-07T09:25:45;58.53;;;38.10;;
10872;SDS011;34586;53.616;10.032;2023-12-07T09:28:11;57.63;;;38.00;;
10872;SDS011;34586;53.616;10.032;2023-12-07T09:30:37;60.83;;;39.83;;
10872;SDS011;34586;53.616;10.032;2023-12-07T09:33:03;59.17;;;38.77;;
10872;SDS011;34586;53.616;10.032;2023-12-07T09:35:29;62.73;;;41.27;;
10872;SDS011;34586;53.616;10.032;2023-12-07T09:37:54;66.37;;;40.67;;
10872;SDS011;34586;53.616;10.032;2023-12-07T09:40:21;64.17;;;40.80;;
10872;SDS011;34586;53.616;10.032;2023-12-07T09:42:47;61.73;;;39.83;;
10872;SDS011;34586;53.616;10.032;2023-12-07T09:45:14;65.80;;;41.77;;
10872;SDS011;34586;53.616;10.032;2023-12-07T09:47:42;64.63;;;41.50;;
10872;SDS011;34586;53.616;10.032;2023-12-07T09:50:08;66.50;;;40.93;;
10872;SDS011;34586;53.616;10.032;2023-12-07T09:52:35;58.57;;;39.27;;
10872;SDS011;34586;53.616;10.032;2023-12-07T09:55:02;62.53;;;41.63;;
10872;SDS011;34586;53.616;10.032;2023-12-07T09:57:28;61.23;;;39.00;;
10872;SDS011;34586;53.616;10.032;2023-12-07T09:59:54;58.33;;;38.77;;
10872;SDS011;34586;53.616;10.032;2023-12-07T10:02:21;68.77;;;43.77;;
10872;SDS011;34586;53.616;10.032;2023-12-07T10:04:47;60.10;;;39.67;;
10872;SDS011;34586;53.616;10.032;2023-12-07T10:07:13;60.67;;;38.03;;
10872;SDS011;34586;53.616;10.032;2023-12-07T10:09:39;59.70;;;39.40;;
10872;SDS011;34586;53.616;10.032;2023-12-07T10:12:07;56.70;;;38.30;;
10872;SDS011;34586;53.616;10.032;2023-12-07T10:14:33;62.43;;;41.90;;
10872;SDS011;34586;53.616;10.032;2023-12-07T10:16:59;72.80;;;47.10;;
10872;SDS011;34586;53.616;10.032;2023-12-07T10:19:25;65.37;;;42.83;;
10872;SDS011;34586;53.616;10.032;2023-12-07T10:21:52;69.47;;;44.63;;
10872;SDS011;34586;53.616;10.032;2023-12-07T10:24:19;65.80;;;42.57;;
10872;SDS011;34586;53.616;10.032;2023-12-07T10:26:47;65.80;;;42.27;;
10872;SDS011;34586;53.616;10.032;2023-12-07T10:29:13;63.87;;;42.70;;
10872;SDS011;34586;53.616;10.032;2023-12-07T10:31:38;63.33;;;43.13;;
10872;SDS011;34586;53.616;10.032;2023-12-07T10:34:05;58.13;;;40.97;;
10872;SDS011;34586;53.616;10.032;2023-12-07T10:36:32;64.50;;;43.80;;
10872;SDS011;34586;53.616;10.032;2023-12-07T10:38:58;64.93;;;42.30;;
10872;SDS011;34586;53.616;10.032;2023-12-07T10:41:24;59.57;;;40.80;;
10872;SDS011;34586;53.616;10.032;2023-12-07T10:43:59;60.87;;;41.90;;
10872;SDS011;34586;53.616;10.032;2023-12-07T10:46:26;56.17;;;38.83;;
10872;SDS011;34586;53.616;10.032;2023-12-07T10:48:57;64.17;;;44.27;;
10872;SDS011;34586;53.616;10.032;2023-12-07T10:51:37;60.57;;;41.00;;
10872;SDS011;34586;53.616;10.032;2023-12-07T10:54:07;57.17;;;39.63;;
10872;SDS011;34586;53.616;10.032;2023-12-07T10:56:40;61.53;;;41.77;;
10872;SDS011;34586;53.616;10.032;2023-12-07T10:59:09;62.33;;;42.00;;
10872;SDS011;34586;53.616;10.032;2023-12-07T11:01:38;62.30;;;41.00;;
10872;SDS011;34586;53.616;10.032;2023-12-07T11:04:07;63.83;;;43.70;;
10872;SDS011;34586;53.616;10.032;2023-12-07T11:06:39;61.60;;;40.60;;
10872;SDS011;34586;53.616;10.032;2023-12-07T11:09:10;58.83;;;42.03;;
10872;SDS011;34586;53.616;10.032;2023-12-07T11:11:43;62.90;;;42.87;;
10872;SDS011;34586;53.616;10.032;2023-12-07T11:14:14;55.27;;;39.13;;
10872;SDS011;34586;53.616;10.032;2023-12-07T11:16:42;59.57;;;40.53;;
10872;SDS011;34586;53.616;10.032;2023-12-07T11:21:54;57.83;;;39.50;;
10872;SDS011;34586;53.616;10.032;2023-12-07T11:24:22;60.43;;;41.67;;
10872;SDS011;34586;53.616;10.032;2023-12-07T11:26:49;56.50;;;39.67;;
10872;SDS011;34586;53.616;10.032;2023-12-07T11:29:19;61.83;;;42.13;;
10872;SDS011;34586;53.616;10.032;2023-12-07T11:31:45;57.17;;;41.00;;
10872;SDS011;34586;53.616;10.032;2023-12-07T11:34:11;57.33;;;39.37;;
10872;SDS011;34586;53.616;10.032;2023-12-07T11:36:40;51.30;;;37.50;;
10872;SDS011;34586;53.616;10.032;2023-12-07T11:41:45;54.37;;;38.27;;
10872;SDS011;34586;53.616;10.032;2023-12-07T11:44:14;57.53;;;40.77;;
10872;SDS011;34586;53.616;10.032;2023-12-07T11:46:42;55.50;;;39.77;;
10872;SDS011;34586;53.616;10.032;2023-12-07T11:49:07;54.40;;;38.40;;
10872;SDS011;34586;53.616;10.032;2023-12-07T11:51:36;50.30;;;37.53;;
10872;SDS011;34586;53.616;10.032;2023-12-07T11:54:02;49.83;;;35.67;;
10872;SDS011;34586;53.616;10.032;2023-12-07T11:56:27;45.73;;;34.93;;
10872;SDS011;34586;53.616;10.032;2023-12-07T11:58:53;46.40;;;34.47;;
10872;SDS011;34586;53.616;10.032;2023-12-07T12:01:20;45.03;;;33.37;;
10872;SDS011;34586;53.616;10.032;2023-12-07T12:03:47;43.33;;;33.17;;
10872;SDS011;34586;53.616;10.032;2023-12-07T12:06:12;45.37;;;34.33;;
10872;SDS011;34586;53.616;10.032;2023-12-07T12:08:39;45.93;;;33.70;;
10872;SDS011;34586;53.616;10.032;2023-12-07T12:11:06;43.70;;;33.73;;
10872;SDS011;34586;53.616;10.032;2023-12-07T12:13:35;42.40;;;32.50;;
10872;SDS011;34586;53.616;10.032;2023-12-07T12:16:02;41.97;;;31.87;;
10872;SDS011;34586;53.616;10.032;2023-12-07T12:18:28;43.97;;;33.23;;
10872;SDS011;34586;53.616;10.032;2023-12-07T12:20:54;41.03;;;32.53;;
10872;SDS011;34586;53.616;10.032;2023-12-07T12:23:20;43.07;;;32.33;;
10872;SDS011;34586;53.616;10.032;2023-12-07T12:25:46;41.17;;;31.77;;
10872;SDS011;34586;53.616;10.032;2023-12-07T12:28:15;41.50;;;31.13;;
10872;SDS011;34586;53.616;10.032;2023-12-07T12:30:43;45.77;;;32.43;;
10872;SDS011;34586;53.616;10.032;2023-12-07T12:33:09;43.97;;;32.93;;
10872;SDS011;34586;53.616;10.032;2023-12-07T12:35:35;42.20;;;32.17;;
10872;SDS011;34586;53.616;10.032;2023-12-07T12:38:00;47.87;;;34.80;;
10872;SDS011;34586;53.616;10.032;2023-12-07T12:40:27;47.97;;;34.50;;
10872;SDS011;34586;53.616;10.032;2023-12-07T12:42:54;44.13;;;33.37;;
10872;SDS011;34586;53.616;10.032;2023-12-07T12:45:20;46.43;;;35.30;;
10872;SDS011;34586;53.616;10.032;2023-12-07T12:47:46;45.43;;;32.90;;
10872;SDS011;34586;53.616;10.032;2023-12-07T12:50:31;45.57;;;33.87;;
10872;SDS011;34586;53.616;10.032;2023-12-07T12:53:02;45.37;;;32.53;;
10872;SDS011;34586;53.616;10.032;2023-12-07T12:55:33;43.07;;;32.70;;
10872;SDS011;34586;53.616;10.032;2023-12-07T12:58:05;43.03;;;33.27;;
10872;SDS011;34586;53.616;10.032;2023-12-07T13:00:32;42.53;;;32.63;;
10872;SDS011;34586;53.616;10.032;2023-12-07T13:02:59;42.63;;;32.23;;
10872;SDS011;34586;53.616;10.032;2023-12-07T13:05:26;45.27;;;32.13;;
10872;SDS011;34586;53.616;10.032;2023-12-07T13:07:52;46.63;;;33.60;;
10872;SDS011;34586;53.616;10.032;2023-12-07T13:10:18;59.50;;;41.70;;
10872;SDS011;34586;53.616;10.032;2023-12-07T13:12:44;66.80;;;42.77;;
10872;SDS011;34586;53.616;10.032;2023-12-07T13:15:10;65.23;;;41.83;;
10872;SDS011;34586;53.616;10.032;2023-12-07T13:17:37;69.43;;;44.23;;
10872;SDS011;34586;53.616;10.032;2023-12-07T13:20:04;69.53;;;45.53;;
10872;SDS011;34586;53.616;10.032;2023-12-07T13:22:35;73.90;;;45.80;;
10872;SDS011;34586;53.616;10.032;2023-12-07T13:25:10;72.70;;;45.50;;
10872;SDS011;34586;53.616;10.032;2023-12-07T13:27:37;68.57;;;43.13;;
10872;SDS011;34586;53.616;10.032;2023-12-07T13:30:03;78.50;;;47.23;;
10872;SDS011;34586;53.616;10.032;2023-12-07T13:32:32;69.27;;;43.40;;
10872;SDS011;34586;53.616;10.032;2023-12-07T13:34:59;77.23;;;45.97;;
10872;SDS011;34586;53.616;10.032;2023-12-07T13:37:25;70.07;;;43.90;;
10872;SDS011;34586;53.616;10.032;2023-12-07T13:39:50;71.33;;;44.70;;
10872;SDS011;34586;53.616;10.032;2023-12-07T13:42:22;68.93;;;43.73;;
10872;SDS011;34586;53.616;10.032;2023-12-07T13:44:51;69.47;;;43.37;;
10872;SDS011;34586;53.616;10.032;2023-12-07T13:47:18;68.03;;;43.30;;
10872;SDS011;34586;53.616;10.032;2023-12-07T13:49:45;67.53;;;44.27;;
10872;SDS011;34586;53.616;10.032;2023-12-07T13:52:10;70.17;;;43.90;;
10872;SDS011;34586;53.616;10.032;2023-12-07T13:54:36;66.60;;;41.30;;
10872;SDS011;34586;53.616;10.032;2023-12-07T13:57:02;65.43;;;42.90;;
10872;SDS011;34586;53.616;10.032;2023-12-07T13:59:28;65.43;;;42.90;;
10872;SDS011;34586;53.616;10.032;2023-12-07T14:01:54;64.30;;;42.90;;
10872;SDS011;34586;53.616;10.032;2023-12-07T14:04:20;67.67;;;44.40;;
10872;SDS011;34586;53.616;10.032;2023-12-07T14:06:46;69.77;;;42.73;;